createdAt,value
2024-04-17T00:01:23.917Z,24.12
2024-04-17T00:03:50.223Z,24.11
2024-04-17T00:06:16.405Z,24.11
2024-04-17T00:08:42.674Z,24.11
2024-04-17T00:11:09.138Z,24.09
2024-04-17T00:13:35.351Z,24.10
2024-04-17T00:16:03.812Z,24.09
2024-04-17T00:18:27.983Z,24.09
2024-04-17T00:20:54.300Z,24.06
2024-04-17T00:23:20.632Z,24.09
2024-04-17T00:25:47.154Z,24.08
2024-04-17T00:28:13.328Z,24.05
2024-04-17T00:30:39.737Z,24.06
2024-04-17T00:33:06.073Z,24.06
2024-04-17T00:35:32.392Z,24.08
2024-04-17T00:37:58.731Z,24.03
2024-04-17T00:40:24.982Z,24.04
2024-04-17T00:42:51.278Z,24.04
2024-04-17T00:45:17.624Z,24.04
2024-04-17T00:47:44.086Z,24.03
2024-04-17T00:50:10.252Z,24.02
2024-04-17T00:52:36.653Z,24.02
2024-04-17T00:55:02.872Z,24.04
2024-04-17T00:57:29.260Z,24.03
2024-04-17T00:59:55.600Z,24.03
2024-04-17T01:02:21.944Z,24.02
2024-04-17T01:04:48.314Z,24.03
2024-04-17T01:07:14.594Z,24.03
2024-04-17T01:09:40.923Z,24.00
2024-04-17T01:12:07.202Z,24.00
2024-04-17T01:14:33.597Z,23.99
2024-04-17T01:16:59.999Z,24.00
2024-04-17T01:19:26.279Z,23.99
2024-04-17T01:21:52.629Z,23.99
2024-04-17T01:24:18.924Z,24.00
2024-04-17T01:26:45.240Z,24.00
2024-04-17T01:29:11.549Z,24.00
2024-04-17T01:31:37.845Z,23.99
2024-04-17T01:34:04.242Z,23.99
2024-04-17T01:36:30.536Z,23.99
2024-04-17T01:38:56.868Z,23.99
2024-04-17T01:41:23.128Z,23.99
2024-04-17T01:43:49.563Z,23.99
2024-04-17T01:46:15.808Z,23.98
2024-04-17T01:48:42.051Z,23.98
2024-04-17T01:51:08.484Z,23.97
2024-04-17T01:53:34.782Z,23.96
2024-04-17T01:56:01.109Z,23.98
2024-04-17T01:58:27.398Z,23.97
2024-04-17T02:00:53.748Z,23.96
2024-04-17T02:03:20.224Z,23.98
2024-04-17T02:05:46.337Z,23.99
2024-04-17T02:08:12.788Z,23.95
2024-04-17T02:10:39.218Z,23.96
2024-04-17T02:13:05.519Z,23.96
2024-04-17T02:15:31.790Z,23.98
2024-04-17T02:17:58.233Z,23.97
2024-04-17T02:20:24.641Z,23.97
2024-04-17T02:22:51.018Z,23.98
2024-04-17T02:25:17.272Z,23.97
2024-04-17T02:27:43.556Z,23.98
2024-04-17T02:30:09.952Z,23.98
2024-04-17T02:32:36.359Z,23.99
2024-04-17T02:35:02.638Z,23.98
2024-04-17T02:37:28.996Z,23.97
2024-04-17T02:39:55.253Z,23.97
2024-04-17T02:42:21.624Z,23.95
2024-04-17T02:44:47.915Z,23.92
2024-04-17T02:47:14.261Z,23.94
2024-04-17T02:49:40.522Z,23.92
2024-04-17T02:52:06.763Z,23.94
2024-04-17T02:54:33.180Z,23.92
2024-04-17T02:56:59.640Z,23.90
2024-04-17T02:59:25.940Z,23.89
2024-04-17T03:01:52.438Z,23.89
2024-04-17T03:04:18.544Z,23.87
2024-04-17T03:06:44.810Z,23.85
2024-04-17T03:09:13.070Z,23.84
2024-04-17T03:11:37.532Z,23.86
2024-04-17T03:14:03.924Z,23.83
2024-04-17T03:16:30.222Z,23.84
2024-04-17T03:18:56.517Z,23.83
2024-04-17T03:21:22.785Z,23.82
2024-04-17T03:23:49.077Z,23.83
2024-04-17T03:26:15.478Z,23.81
2024-04-17T03:28:41.780Z,23.82
2024-04-17T03:31:08.034Z,23.80
2024-04-17T03:33:34.540Z,23.81
2024-04-17T03:36:00.817Z,23.80
2024-04-17T03:38:27.126Z,23.83
2024-04-17T03:40:53.540Z,23.84
2024-04-17T03:43:19.794Z,23.85
2024-04-17T03:45:46.088Z,23.86
2024-04-17T03:48:12.502Z,23.88
2024-04-17T03:50:38.876Z,23.88
2024-04-17T03:53:05.146Z,23.88
2024-04-17T03:55:31.547Z,23.89
2024-04-17T03:57:58.650Z,23.88
2024-04-17T04:00:24.115Z,23.90
2024-04-17T04:02:50.482Z,23.89
2024-04-17T04:05:16.685Z,23.90
2024-04-17T04:07:43.074Z,23.88
2024-04-17T04:10:09.274Z,23.89
2024-04-17T04:12:35.657Z,23.89
2024-04-17T04:15:01.983Z,23.91
2024-04-17T04:17:28.300Z,23.89
2024-04-17T04:19:55.045Z,23.89
2024-04-17T04:22:21.521Z,23.90
2024-04-17T04:24:47.719Z,23.90
2024-04-17T04:27:14.022Z,23.91
2024-04-17T04:29:40.383Z,23.90
2024-04-17T04:32:06.775Z,23.91
2024-04-17T04:34:33.008Z,23.91
2024-04-17T04:36:59.374Z,23.95
2024-04-17T04:39:25.725Z,23.94
2024-04-17T04:41:52.017Z,23.95
2024-04-17T04:44:18.377Z,23.94
2024-04-17T04:46:44.730Z,23.92
2024-04-17T04:49:10.994Z,23.94
2024-04-17T04:51:37.280Z,23.95
2024-04-17T04:54:03.542Z,23.94
2024-04-17T04:56:29.852Z,23.96
2024-04-17T04:58:56.323Z,23.94
2024-04-17T05:01:22.608Z,23.97
2024-04-17T05:03:48.835Z,23.98
2024-04-17T05:06:15.107Z,23.97
2024-04-17T05:08:41.422Z,23.99
2024-04-17T05:11:07.779Z,24.01
2024-04-17T05:13:33.994Z,24.02
2024-04-17T05:16:00.379Z,24.02
2024-04-17T05:18:26.759Z,24.02
2024-04-17T05:20:53.020Z,24.03
2024-04-17T05:23:19.325Z,24.04
2024-04-17T05:25:45.650Z,24.04
2024-04-17T05:28:11.885Z,24.04
2024-04-17T05:30:38.187Z,24.05
2024-04-17T05:33:04.711Z,24.05
2024-04-17T05:35:30.938Z,24.06
2024-04-17T05:37:57.425Z,24.08
2024-04-17T05:40:23.645Z,24.09
2024-04-17T05:42:49.937Z,24.10
2024-04-17T05:45:16.337Z,24.09
2024-04-17T05:47:42.711Z,24.09
2024-04-17T05:50:09.532Z,24.10
2024-04-17T05:52:35.274Z,24.10
2024-04-17T05:55:01.529Z,24.14
2024-04-17T05:57:27.810Z,24.13
2024-04-17T05:59:54.120Z,24.12
2024-04-17T06:02:20.407Z,24.15
2024-04-17T06:04:46.829Z,24.15
2024-04-17T06:07:13.126Z,24.17
2024-04-17T06:09:39.547Z,24.15
2024-04-17T06:12:05.843Z,24.16
2024-04-17T06:14:32.289Z,24.18
2024-04-17T06:16:58.570Z,24.19
2024-04-17T06:19:24.919Z,24.21
2024-04-17T06:21:51.156Z,24.23
2024-04-17T06:24:17.451Z,24.20
2024-04-17T06:26:43.768Z,24.24
2024-04-17T06:29:10.108Z,24.25
2024-04-17T06:31:36.484Z,24.24
2024-04-17T06:34:02.666Z,24.26
2024-04-17T06:36:28.960Z,24.27
2024-04-17T06:38:55.341Z,24.25
2024-04-17T06:41:21.590Z,24.26
2024-04-17T06:43:47.906Z,24.27
2024-04-17T06:46:14.309Z,24.27
2024-04-17T06:48:40.651Z,24.27
2024-04-17T06:51:06.963Z,24.21
2024-04-17T06:53:33.315Z,24.21
2024-04-17T06:55:59.793Z,24.24
2024-04-17T06:58:26.003Z,24.20
2024-04-17T07:00:52.402Z,24.17
2024-04-17T07:03:18.825Z,24.14
2024-04-17T07:05:45.075Z,24.09
2024-04-17T07:08:11.414Z,24.08
2024-04-17T07:10:37.868Z,24.05
2024-04-17T07:13:04.276Z,24.06
2024-04-17T07:15:30.564Z,24.09
2024-04-17T07:17:56.897Z,24.11
2024-04-17T07:20:23.250Z,24.14
2024-04-17T07:22:49.724Z,24.15
2024-04-17T07:25:17.346Z,24.16
2024-04-17T07:27:42.289Z,24.17
2024-04-17T07:30:08.625Z,24.13
2024-04-17T07:32:35.080Z,24.16
2024-04-17T07:35:03.527Z,24.16
2024-04-17T07:37:27.635Z,24.14
2024-04-17T07:39:54.973Z,24.14
2024-04-17T07:42:20.178Z,24.15
2024-04-17T07:44:46.459Z,24.13
2024-04-17T07:47:12.823Z,24.11
2024-04-17T07:49:39.266Z,24.13
2024-04-17T07:52:05.660Z,24.13
2024-04-17T07:54:31.966Z,24.18
2024-04-17T07:56:58.257Z,24.15
2024-04-17T07:59:24.664Z,24.15
2024-04-17T08:01:51.231Z,24.18
2024-04-17T08:04:17.563Z,24.18
2024-04-17T08:06:43.851Z,24.18
2024-04-17T08:09:10.320Z,24.23
2024-04-17T08:11:38.327Z,24.19
2024-04-17T08:14:03.007Z,24.20
2024-04-17T08:16:29.552Z,24.20
2024-04-17T08:18:55.942Z,24.24
2024-04-17T08:21:22.319Z,24.20
2024-04-17T08:23:48.647Z,24.20
2024-04-17T08:26:14.969Z,24.15
2024-04-17T08:28:41.245Z,24.11
2024-04-17T08:31:07.595Z,24.10
2024-04-17T08:33:34.116Z,24.11
2024-04-17T08:36:00.262Z,24.11
2024-04-17T08:38:26.764Z,24.09
2024-04-17T08:40:53.145Z,24.08
2024-04-17T08:43:19.570Z,24.08
2024-04-17T08:45:50.382Z,24.11
2024-04-17T08:48:12.388Z,24.09
2024-04-17T08:50:38.554Z,24.09
2024-04-17T08:53:04.859Z,24.08
2024-04-17T08:55:31.219Z,24.05
2024-04-17T08:57:57.704Z,24.04
2024-04-17T09:00:24.141Z,24.04
2024-04-17T09:02:50.544Z,24.09
2024-04-17T09:05:16.939Z,24.10
2024-04-17T09:07:43.441Z,24.06
2024-04-17T09:10:09.655Z,24.08
2024-04-17T09:12:35.942Z,24.04
2024-04-17T09:15:02.394Z,24.04
2024-04-17T09:17:30.406Z,24.05
2024-04-17T09:19:55.314Z,24.05
2024-04-17T09:22:21.656Z,24.02
2024-04-17T09:24:47.950Z,24.02
2024-04-17T09:27:14.263Z,24.04
2024-04-17T09:29:40.642Z,24.10
2024-04-17T09:32:07.114Z,24.06
2024-04-17T09:34:33.578Z,24.11
2024-04-17T09:36:59.704Z,24.11
2024-04-17T09:39:26.086Z,24.15
2024-04-17T09:41:52.382Z,24.16
2024-04-17T09:44:18.753Z,24.20
2024-04-17T09:46:45.266Z,24.19
2024-04-17T09:49:11.476Z,24.21
2024-04-17T09:51:37.777Z,24.23
2024-04-17T09:54:04.201Z,24.20
2024-04-17T09:56:30.637Z,24.27
2024-04-17T09:59:04.298Z,24.24
2024-04-17T10:01:23.290Z,24.21
2024-04-17T10:03:49.803Z,24.16
2024-04-17T10:06:16.051Z,24.15
2024-04-17T10:08:42.461Z,24.15
2024-04-17T10:11:08.901Z,24.06
2024-04-17T10:13:35.071Z,24.03
2024-04-17T10:16:02.203Z,23.99
2024-04-17T10:18:29.006Z,24.01
2024-04-17T10:20:54.960Z,23.98
2024-04-17T10:23:21.448Z,23.90
2024-04-17T10:25:47.763Z,23.97
2024-04-17T10:28:16.268Z,23.94
2024-04-17T10:30:40.344Z,23.96
2024-04-17T10:33:06.779Z,24.00
2024-04-17T10:35:32.988Z,24.09
2024-04-17T10:37:59.371Z,24.14
2024-04-17T10:40:25.562Z,24.15
2024-04-17T10:42:51.983Z,24.15
2024-04-17T10:45:18.503Z,24.14
2024-04-17T10:47:44.818Z,24.16
2024-04-17T10:50:13.421Z,24.13
2024-04-17T10:52:37.481Z,24.15
2024-04-17T10:55:03.980Z,24.13
2024-04-17T10:57:30.214Z,24.13
2024-04-17T10:59:56.610Z,24.13
2024-04-17T11:02:23.031Z,24.12
2024-04-17T11:04:49.295Z,24.09
2024-04-17T11:07:15.697Z,24.06
2024-04-17T11:09:42.131Z,24.03
2024-04-17T11:12:08.459Z,24.00
2024-04-17T11:14:34.895Z,23.98
2024-04-17T11:17:01.399Z,23.96
2024-04-17T11:19:27.698Z,23.92
2024-04-17T11:21:53.860Z,23.94
2024-04-17T11:24:20.190Z,23.90
2024-04-17T11:26:46.650Z,23.92
2024-04-17T11:29:13.012Z,23.94
2024-04-17T11:31:39.443Z,23.96
2024-04-17T11:34:05.848Z,23.97
2024-04-17T11:36:32.116Z,23.95
2024-04-17T11:38:58.485Z,23.96
2024-04-17T11:41:24.779Z,24.00
2024-04-17T11:43:51.254Z,23.99
2024-04-17T11:46:17.652Z,24.00
2024-04-17T11:48:44.018Z,24.01
2024-04-17T11:51:10.246Z,24.04
2024-04-17T11:53:36.655Z,24.02
2024-04-17T11:56:03.355Z,24.09
2024-04-17T11:58:29.380Z,24.12
2024-04-17T12:00:55.672Z,24.13
2024-04-17T12:03:22.320Z,24.13
2024-04-17T12:05:51.721Z,24.14
2024-04-17T12:08:14.665Z,24.14
2024-04-17T12:10:41.071Z,24.14
2024-04-17T12:13:07.460Z,24.18
2024-04-17T12:15:33.817Z,24.20
2024-04-17T12:18:00.123Z,24.17
2024-04-17T12:20:26.391Z,24.17
2024-04-17T12:22:52.885Z,24.18
2024-04-17T12:25:19.341Z,24.11
2024-04-17T12:27:45.600Z,24.10
2024-04-17T12:30:12.156Z,24.10
2024-04-17T12:32:38.448Z,24.08
2024-04-17T12:35:05.010Z,24.05
2024-04-17T12:37:31.211Z,24.09
2024-04-17T12:39:57.568Z,24.12
2024-04-17T12:42:23.984Z,24.11
2024-04-17T12:44:50.416Z,24.14
2024-04-17T12:47:16.856Z,24.14
2024-04-17T12:49:43.140Z,24.14
2024-04-17T12:52:09.577Z,24.19
2024-04-17T12:54:35.948Z,24.16
2024-04-17T12:57:02.376Z,24.16
2024-04-17T12:59:28.793Z,24.16
2024-04-17T13:01:55.113Z,24.19
2024-04-17T13:04:21.594Z,24.24
2024-04-17T13:06:48.198Z,24.25
2024-04-17T13:09:14.547Z,24.25
2024-04-17T13:11:41.007Z,24.23
2024-04-17T13:14:07.372Z,24.23
2024-04-17T13:16:34.849Z,24.13
2024-04-17T13:18:59.917Z,24.13
2024-04-17T13:21:26.294Z,24.08
2024-04-17T13:23:52.762Z,24.06
2024-04-17T13:26:20.947Z,24.05
2024-04-17T13:28:45.347Z,24.03
2024-04-17T13:31:11.548Z,24.08
2024-04-17T13:33:38.142Z,24.06
2024-04-17T13:36:04.113Z,24.03
2024-04-17T13:38:30.478Z,24.04
2024-04-17T13:40:56.824Z,24.03
2024-04-17T13:43:23.035Z,24.06
2024-04-17T13:45:49.296Z,24.10
2024-04-17T13:48:15.710Z,24.09
2024-04-17T13:50:41.895Z,24.09
2024-04-17T13:53:08.349Z,24.01
2024-04-17T13:55:34.642Z,24.11
2024-04-17T13:58:01.730Z,24.09
2024-04-17T14:00:27.208Z,24.06
2024-04-17T14:02:53.502Z,24.01
2024-04-17T14:05:19.840Z,23.99
2024-04-17T14:07:46.134Z,23.96
2024-04-17T14:10:12.459Z,23.95
2024-04-17T14:12:38.867Z,23.95
2024-04-17T14:15:05.339Z,23.89
2024-04-17T14:17:31.626Z,23.86
2024-04-17T14:19:57.854Z,23.87
2024-04-17T14:22:24.163Z,23.90
2024-04-17T14:24:50.603Z,23.89
2024-04-17T14:27:16.902Z,23.91
2024-04-17T14:29:43.156Z,23.91
2024-04-17T14:32:09.486Z,23.92
2024-04-17T14:34:35.833Z,23.90
2024-04-17T14:37:02.265Z,23.91
2024-04-17T14:39:28.536Z,23.91
2024-04-17T14:41:54.996Z,23.94
2024-04-17T14:44:21.207Z,23.97
2024-04-17T14:46:47.569Z,23.95
2024-04-17T14:49:13.963Z,23.91
2024-04-17T14:51:40.199Z,23.92
2024-04-17T14:54:06.627Z,23.90
2024-04-17T14:56:32.854Z,23.92
2024-04-17T14:58:59.260Z,23.95
2024-04-17T15:01:25.600Z,23.94
2024-04-17T15:03:52.012Z,23.92
2024-04-17T15:06:18.344Z,23.91
2024-04-17T15:08:44.670Z,23.92
2024-04-17T15:11:11.020Z,23.89
2024-04-17T15:13:37.424Z,23.91
2024-04-17T15:16:03.742Z,23.89
2024-04-17T15:18:30.155Z,23.90
2024-04-17T15:20:56.313Z,23.94
2024-04-17T15:23:22.646Z,23.95
2024-04-17T15:25:48.974Z,23.94
2024-04-17T15:28:15.283Z,23.91
2024-04-17T15:30:41.700Z,23.94
2024-04-17T15:33:08.018Z,23.90
2024-04-17T15:35:34.411Z,23.90
2024-04-17T15:38:00.741Z,23.87
2024-04-17T15:40:27.004Z,23.88
2024-04-17T15:42:53.356Z,23.86
2024-04-17T15:45:19.671Z,23.87
2024-04-17T15:47:46.066Z,23.85
2024-04-17T15:50:12.284Z,23.85
2024-04-17T15:52:38.577Z,23.84
2024-04-17T15:55:04.948Z,23.83
2024-04-17T15:57:31.240Z,23.82
2024-04-17T15:59:57.501Z,23.77
2024-04-17T16:02:23.867Z,23.79
2024-04-17T16:04:50.126Z,23.77
2024-04-17T16:07:16.409Z,23.79
2024-04-17T16:09:42.860Z,23.79
2024-04-17T16:12:09.015Z,23.75
2024-04-17T16:14:35.387Z,23.75
2024-04-17T16:17:02.745Z,23.75
2024-04-17T16:19:27.958Z,23.76
2024-04-17T16:21:54.247Z,23.75
2024-04-17T16:24:20.566Z,23.73
2024-04-17T16:26:46.834Z,23.73
2024-04-17T16:29:13.164Z,23.72
2024-04-17T16:31:39.505Z,23.71
2024-04-17T16:34:05.974Z,23.72
2024-04-17T16:36:32.208Z,23.71
2024-04-17T16:38:58.514Z,23.72
2024-04-17T16:41:24.786Z,23.69
2024-04-17T16:43:51.181Z,23.70
2024-04-17T16:46:17.562Z,23.70
2024-04-17T16:48:44.098Z,23.71
2024-04-17T16:51:10.316Z,23.70
2024-04-17T16:53:36.505Z,23.70
2024-04-17T16:56:02.755Z,23.69
2024-04-17T16:58:29.167Z,23.69
2024-04-17T17:00:55.607Z,23.67
2024-04-17T17:03:21.909Z,23.65
2024-04-17T17:05:48.027Z,23.65
2024-04-17T17:10:56.632Z,23.65
2024-04-17T17:13:23.007Z,23.64
2024-04-17T17:15:49.393Z,23.65
2024-04-17T17:18:15.920Z,23.62
2024-04-17T17:20:42.113Z,23.64
2024-04-17T17:23:08.435Z,23.62
2024-04-17T17:25:34.730Z,23.61
2024-04-17T17:28:01.038Z,23.60
2024-04-17T17:30:27.449Z,23.60
2024-04-17T17:32:53.763Z,23.60
2024-04-17T17:35:20.020Z,23.60
2024-04-17T17:37:49.097Z,23.60
2024-04-17T17:40:15.463Z,23.59
2024-04-17T17:42:41.878Z,23.58
2024-04-17T17:45:08.003Z,23.59
2024-04-17T17:47:34.475Z,23.59
2024-04-17T17:50:00.702Z,23.59
2024-04-17T17:52:27.066Z,23.58
2024-04-17T17:54:53.340Z,23.56
2024-04-17T17:57:19.757Z,23.56
2024-04-17T17:59:46.067Z,23.55
2024-04-17T18:02:12.540Z,23.58
2024-04-17T18:04:38.995Z,23.59
2024-04-17T18:07:05.264Z,23.61
2024-04-17T18:09:31.725Z,23.61
2024-04-17T18:11:57.897Z,23.62
2024-04-17T18:14:24.169Z,23.62
2024-04-17T18:16:50.595Z,23.64
2024-04-17T18:19:17.035Z,23.62
2024-04-17T18:21:43.237Z,23.62
2024-04-17T18:24:09.609Z,23.61
2024-04-17T18:26:36.631Z,23.62
2024-04-17T18:29:02.384Z,23.61
2024-04-17T18:31:28.675Z,23.62
2024-04-17T18:33:55.285Z,23.64
2024-04-17T18:36:23.562Z,23.65
2024-04-17T18:38:47.699Z,23.64
2024-04-17T18:41:13.985Z,23.62
2024-04-17T18:43:40.259Z,23.64
2024-04-17T18:46:06.672Z,23.64
2024-04-17T18:48:33.080Z,23.64
2024-04-17T18:50:59.334Z,23.64
2024-04-17T18:53:25.771Z,23.61
2024-04-17T18:55:52.068Z,23.62
2024-04-17T18:58:18.423Z,23.60
2024-04-17T19:00:44.775Z,23.60
2024-04-17T19:03:11.112Z,23.60
2024-04-17T19:05:37.528Z,23.59
2024-04-17T19:08:03.798Z,23.59
2024-04-17T19:10:30.194Z,23.58
2024-04-17T19:12:56.624Z,23.58
2024-04-17T19:15:22.974Z,23.59
2024-04-17T19:17:49.263Z,23.58
2024-04-17T19:20:15.754Z,23.57
2024-04-17T19:22:42.002Z,23.57
2024-04-17T19:25:08.310Z,23.58
2024-04-17T19:27:34.739Z,23.57
2024-04-17T19:30:05.975Z,23.57
2024-04-17T19:32:27.410Z,23.56
2024-04-17T19:34:53.630Z,23.56
2024-04-17T19:37:20.027Z,23.54
2024-04-17T19:39:46.345Z,23.56
2024-04-17T19:42:32.240Z,23.53
2024-04-17T19:44:56.325Z,23.52
2024-04-17T19:47:22.637Z,23.50
2024-04-17T19:49:48.981Z,23.51
2024-04-17T19:52:15.304Z,23.49
2024-04-17T19:54:41.667Z,23.47
2024-04-17T19:57:07.999Z,23.47
2024-04-17T19:59:35.758Z,23.46
2024-04-17T20:02:00.730Z,23.45
2024-04-17T20:04:27.122Z,23.44
2024-04-17T20:06:53.288Z,23.44
2024-04-17T20:09:19.533Z,23.42
2024-04-17T20:11:45.863Z,23.41
2024-04-17T20:14:12.198Z,23.41
2024-04-17T20:16:38.523Z,23.38
2024-04-17T20:19:04.902Z,23.40
2024-04-17T20:21:31.200Z,23.37
2024-04-17T20:23:57.488Z,23.37
2024-04-17T20:26:23.847Z,23.35
2024-04-17T20:28:57.340Z,23.37
2024-04-17T20:31:16.612Z,23.37
2024-04-17T20:33:43.026Z,23.36
2024-04-17T20:36:09.236Z,23.36
2024-04-17T20:38:35.488Z,23.36
2024-04-17T20:41:01.823Z,23.35
2024-04-17T20:43:28.179Z,23.32
2024-04-17T20:45:54.451Z,23.32
2024-04-17T20:48:20.867Z,23.31
2024-04-17T20:50:47.154Z,23.31
2024-04-17T20:53:13.419Z,23.30
2024-04-17T20:55:39.821Z,23.30
2024-04-17T20:58:06.133Z,23.29
2024-04-17T21:00:32.409Z,23.28
2024-04-17T21:02:58.795Z,23.29
2024-04-17T21:05:24.965Z,23.28
2024-04-17T21:07:51.260Z,23.27
2024-04-17T21:10:17.699Z,23.26
2024-04-17T21:12:44.087Z,23.26
2024-04-17T21:15:10.362Z,23.26
2024-04-17T21:17:36.650Z,23.25
2024-04-17T21:20:02.923Z,23.25
2024-04-17T21:22:29.263Z,23.24
2024-04-17T21:24:55.530Z,23.24
2024-04-17T21:27:21.850Z,23.25
2024-04-17T21:29:48.115Z,23.24
2024-04-17T21:32:14.521Z,23.22
2024-04-17T21:34:40.783Z,23.21
2024-04-17T21:37:07.210Z,23.17
2024-04-17T21:39:33.477Z,23.20
2024-04-17T21:41:59.733Z,23.17
2024-04-17T21:44:26.014Z,23.18
2024-04-17T21:46:52.291Z,23.17
2024-04-17T21:49:18.621Z,23.16
2024-04-17T21:51:44.918Z,23.16
2024-04-17T21:54:11.207Z,23.16
2024-04-17T21:56:37.407Z,23.15
2024-04-17T21:59:03.824Z,23.15
2024-04-17T22:01:30.161Z,23.15
2024-04-17T22:03:56.454Z,23.14
2024-04-17T22:06:22.733Z,23.16
2024-04-17T22:08:49.039Z,23.15
2024-04-17T22:11:15.333Z,23.14
2024-04-17T22:13:41.549Z,23.14
2024-04-17T22:16:07.826Z,23.14
2024-04-17T22:18:34.185Z,23.14
2024-04-17T22:21:00.518Z,23.13
2024-04-17T22:23:26.823Z,23.14
2024-04-17T22:25:53.143Z,23.15
2024-04-17T22:28:19.471Z,23.13
2024-04-17T22:30:45.838Z,23.12
2024-04-17T22:33:12.213Z,23.13
2024-04-17T22:35:38.467Z,23.12
2024-04-17T22:38:04.803Z,23.12
2024-04-17T22:40:31.179Z,23.11
2024-04-17T22:42:57.474Z,23.08
2024-04-17T22:45:23.732Z,23.06
2024-04-17T22:47:51.011Z,23.03
2024-04-17T22:50:16.466Z,23.06
2024-04-17T22:52:42.767Z,23.06
2024-04-17T22:55:09.042Z,23.03
2024-04-17T22:57:35.534Z,23.03
2024-04-17T23:00:01.741Z,23.02
2024-04-17T23:02:28.181Z,23.03
2024-04-17T23:04:54.437Z,23.02
2024-04-17T23:07:20.767Z,23.02
2024-04-17T23:09:47.144Z,23.02
2024-04-17T23:12:13.484Z,23.01
2024-04-17T23:14:39.773Z,23.01
2024-04-17T23:17:06.043Z,23.01
2024-04-17T23:19:32.428Z,23.01
2024-04-17T23:21:58.757Z,23.01
2024-04-17T23:24:25.078Z,22.99
2024-04-17T23:26:51.422Z,22.99
2024-04-17T23:29:17.754Z,22.98
2024-04-17T23:34:26.394Z,22.97
2024-04-17T23:36:52.704Z,22.97
2024-04-17T23:39:19.099Z,22.97
2024-04-17T23:41:45.315Z,22.96
2024-04-17T23:44:11.607Z,22.95
2024-04-17T23:46:38.042Z,22.95
2024-04-17T23:49:04.231Z,22.95
2024-04-17T23:51:30.643Z,22.95
2024-04-17T23:53:56.893Z,22.95
2024-04-17T23:56:23.271Z,22.95
2024-04-17T23:58:49.710Z,22.94
